sensor_id;sensor_type;location;lat;lon;timestamp;temperature;humidity
3705;DHT22;1868;48.918;9.438;2023-12-28T14:44:00;9.20;97.40
3705;DHT22;1868;48.918;9.438;2023-12-28T14:46:29;9.20;97.40
3705;DHT22;1868;48.918;9.438;2023-12-28T14:48:58;9.20;97.40
3705;DHT22;1868;48.918;9.438;2023-12-28T14:51:28;9.20;97.40
3705;DHT22;1868;48.918;9.438;2023-12-28T14:53:56;9.30;97.40
3705;DHT22;1868;48.918;9.438;2023-12-28T14:56:25;9.30;97.40
3705;DHT22;1868;48.918;9.438;2023-12-28T14:59:08;9.30;97.40
3705;DHT22;1868;48.918;9.438;2023-12-28T15:01:37;9.40;97.40
3705;DHT22;1868;48.918;9.438;2023-12-28T15:04:06;9.40;97.40
3705;DHT22;1868;48.918;9.438;2023-12-28T15:06:34;9.50;97.40
3705;DHT22;1868;48.918;9.438;2023-12-28T15:09:04;9.50;97.40
3705;DHT22;1868;48.918;9.438;2023-12-28T15:11:33;9.50;97.40
3705;DHT22;1868;48.918;9.438;2023-12-28T15:14:16;9.50;97.40
3705;DHT22;1868;48.918;9.438;2023-12-28T15:16:46;9.50;97.40
3705;DHT22;1868;48.918;9.438;2023-12-28T15:19:15;9.60;97.40
3705;DHT22;1868;48.918;9.438;2023-12-28T15:21:46;9.60;97.40
3705;DHT22;1868;48.918;9.438;2023-12-28T15:24:15;9.60;97.40
3705;DHT22;1868;48.918;9.438;2023-12-28T15:26:45;9.60;97.40
3705;DHT22;1868;48.918;9.438;2023-12-28T15:29:15;9.70;97.40
3705;DHT22;1868;48.918;9.438;2023-12-28T15:31:44;9.70;97.40
3705;DHT22;1868;48.918;9.438;2023-12-28T15:34:13;9.70;97.40
3705;DHT22;1868;48.918;9.438;2023-12-28T15:36:42;9.70;97.40
3705;DHT22;1868;48.918;9.438;2023-12-28T15:39:11;9.70;97.40
3705;DHT22;1868;48.918;9.438;2023-12-28T15:41:40;9.70;97.40
3705;DHT22;1868;48.918;9.438;2023-12-28T15:44:10;9.70;97.40
3705;DHT22;1868;48.918;9.438;2023-12-28T15:46:41;9.70;97.40
3705;DHT22;1868;48.918;9.438;2023-12-28T15:49:10;9.70;97.40
3705;DHT22;1868;48.918;9.438;2023-12-28T15:51:40;9.70;97.40
3705;DHT22;1868;48.918;9.438;2023-12-28T15:54:09;9.70;97.40
3705;DHT22;1868;48.918;9.438;2023-12-28T15:56:37;9.70;97.40
3705;DHT22;1868;48.918;9.438;2023-12-28T15:59:06;9.70;97.40
3705;DHT22;1868;48.918;9.438;2023-12-28T16:01:34;9.70;97.40
3705;DHT22;1868;48.918;9.438;2023-12-28T16:04:05;9.70;97.40
3705;DHT22;1868;48.918;9.438;2023-12-28T16:06:33;9.70;97.40
3705;DHT22;1868;48.918;9.438;2023-12-28T16:09:02;9.60;97.40
3705;DHT22;1868;48.918;9.438;2023-12-28T16:11:33;9.60;97.40
3705;DHT22;1868;48.918;9.438;2023-12-28T16:14:02;9.60;97.40
3705;DHT22;1868;48.918;9.438;2023-12-28T16:16:31;9.60;97.40
3705;DHT22;1868;48.918;9.438;2023-12-28T16:19:06;9.70;97.40
3705;DHT22;1868;48.918;9.438;2023-12-28T16:21:36;9.60;97.40
3705;DHT22;1868;48.918;9.438;2023-12-28T16:24:06;9.60;97.40
3705;DHT22;1868;48.918;9.438;2023-12-28T16:26:36;9.60;97.40
3705;DHT22;1868;48.918;9.438;2023-12-28T16:29:05;9.60;97.40
3705;DHT22;1868;48.918;9.438;2023-12-28T16:31:34;9.60;97.40
3705;DHT22;1868;48.918;9.438;2023-12-28T16:34:02;9.70;97.40
3705;DHT22;1868;48.918;9.438;2023-12-28T16:36:38;9.80;97.40
3705;DHT22;1868;48.918;9.438;2023-12-28T16:39:08;9.80;97.40
3705;DHT22;1868;48.918;9.438;2023-12-28T16:41:38;9.90;97.40
3705;DHT22;1868;48.918;9.438;2023-12-28T16:44:07;10.00;97.40
3705;DHT22;1868;48.918;9.438;2023-12-28T16:46:45;10.00;97.40
3705;DHT22;1868;48.918;9.438;2023-12-28T16:49:15;10.10;97.40
3705;DHT22;1868;48.918;9.438;2023-12-28T16:51:46;10.10;97.40
3705;DHT22;1868;48.918;9.438;2023-12-28T16:54:16;10.10;97.40
3705;DHT22;1868;48.918;9.438;2023-12-28T16:56:45;10.10;97.40
3705;DHT22;1868;48.918;9.438;2023-12-28T16:59:14;10.20;97.40
3705;DHT22;1868;48.918;9.438;2023-12-28T17:01:43;10.20;97.40
3705;DHT22;1868;48.918;9.438;2023-12-28T17:04:12;10.20;97.40
3705;DHT22;1868;48.918;9.438;2023-12-28T17:06:41;10.20;97.40
3705;DHT22;1868;48.918;9.438;2023-12-28T17:09:14;10.20;97.40
3705;DHT22;1868;48.918;9.438;2023-12-28T17:11:46;10.20;97.40
3705;DHT22;1868;48.918;9.438;2023-12-28T17:14:19;10.20;97.40
3705;DHT22;1868;48.918;9.438;2023-12-28T17:16:48;10.20;97.40
3705;DHT22;1868;48.918;9.438;2023-12-28T17:19:18;10.30;97.40
3705;DHT22;1868;48.918;9.438;2023-12-28T17:21:48;10.30;97.40
3705;DHT22;1868;48.918;9.438;2023-12-28T17:24:18;10.30;97.40
3705;DHT22;1868;48.918;9.438;2023-12-28T17:26:51;10.20;97.40
3705;DHT22;1868;48.918;9.438;2023-12-28T17:29:27;10.20;97.40
3705;DHT22;1868;48.918;9.438;2023-12-28T17:31:57;10.20;97.40
3705;DHT22;1868;48.918;9.438;2023-12-28T17:34:28;10.20;97.40
3705;DHT22;1868;48.918;9.438;2023-12-28T17:36:57;10.20;97.40
3705;DHT22;1868;48.918;9.438;2023-12-28T17:39:29;10.20;97.40
3705;DHT22;1868;48.918;9.438;2023-12-28T17:41:58;10.20;97.40
3705;DHT22;1868;48.918;9.438;2023-12-28T17:44:32;10.10;97.40
3705;DHT22;1868;48.918;9.438;2023-12-28T17:47:08;10.10;97.40
3705;DHT22;1868;48.918;9.438;2023-12-28T17:49:43;10.10;97.40
3705;DHT22;1868;48.918;9.438;2023-12-28T17:52:18;10.10;97.40
3705;DHT22;1868;48.918;9.438;2023-12-28T17:54:49;10.10;97.40
3705;DHT22;1868;48.918;9.438;2023-12-28T17:57:17;10.10;97.40
3705;DHT22;1868;48.918;9.438;2023-12-28T17:59:46;10.10;97.40
3705;DHT22;1868;48.918;9.438;2023-12-28T18:02:15;10.20;97.40
3705;DHT22;1868;48.918;9.438;2023-12-28T18:04:45;10.20;97.40
3705;DHT22;1868;48.918;9.438;2023-12-28T18:07:14;10.20;97.40
3705;DHT22;1868;48.918;9.438;2023-12-28T18:09:42;10.20;97.40
3705;DHT22;1868;48.918;9.438;2023-12-28T18:12:13;10.20;97.40
3705;DHT22;1868;48.918;9.438;2023-12-28T18:14:42;10.20;97.40
3705;DHT22;1868;48.918;9.438;2023-12-28T18:17:10;10.20;97.40
3705;DHT22;1868;48.918;9.438;2023-12-28T18:19:39;10.30;97.40
3705;DHT22;1868;48.918;9.438;2023-12-28T18:22:08;10.30;97.40
3705;DHT22;1868;48.918;9.438;2023-12-28T18:24:37;10.30;97.40
3705;DHT22;1868;48.918;9.438;2023-12-28T18:27:05;10.30;97.40
3705;DHT22;1868;48.918;9.438;2023-12-28T18:29:35;10.30;97.40
3705;DHT22;1868;48.918;9.438;2023-12-28T18:32:04;10.30;97.40
3705;DHT22;1868;48.918;9.438;2023-12-28T18:34:33;10.30;97.40
3705;DHT22;1868;48.918;9.438;2023-12-28T18:37:02;10.30;97.40
3705;DHT22;1868;48.918;9.438;2023-12-28T18:39:31;10.30;97.40
3705;DHT22;1868;48.918;9.438;2023-12-28T18:42:05;10.30;97.40
3705;DHT22;1868;48.918;9.438;2023-12-28T18:44:35;10.30;97.40
3705;DHT22;1868;48.918;9.438;2023-12-28T18:47:05;10.30;97.40
3705;DHT22;1868;48.918;9.438;2023-12-28T18:49:35;10.30;97.40
3705;DHT22;1868;48.918;9.438;2023-12-28T18:52:04;10.40;97.40
3705;DHT22;1868;48.918;9.438;2023-12-28T18:54:33;10.30;97.40
3705;DHT22;1868;48.918;9.438;2023-12-28T18:57:02;10.30;97.40
3705;DHT22;1868;48.918;9.438;2023-12-28T18:59:31;10.30;97.40
3705;DHT22;1868;48.918;9.438;2023-12-28T19:02:01;10.30;97.40
3705;DHT22;1868;48.918;9.438;2023-12-28T19:04:30;10.30;97.40
3705;DHT22;1868;48.918;9.438;2023-12-28T19:06:59;10.30;97.40
3705;DHT22;1868;48.918;9.438;2023-12-28T19:09:29;10.40;97.40
3705;DHT22;1868;48.918;9.438;2023-12-28T19:11:58;10.30;97.40
3705;DHT22;1868;48.918;9.438;2023-12-28T19:14:27;10.30;97.40
3705;DHT22;1868;48.918;9.438;2023-12-28T19:16:55;10.30;97.40
3705;DHT22;1868;48.918;9.438;2023-12-28T19:19:28;10.30;97.40
3705;DHT22;1868;48.918;9.438;2023-12-28T19:21:57;10.40;97.40
3705;DHT22;1868;48.918;9.438;2023-12-28T19:24:26;10.30;97.40
3705;DHT22;1868;48.918;9.438;2023-12-28T19:26:55;10.30;97.40
3705;DHT22;1868;48.918;9.438;2023-12-28T19:29:23;10.30;97.40
3705;DHT22;1868;48.918;9.438;2023-12-28T19:31:54;10.40;97.40
3705;DHT22;1868;48.918;9.438;2023-12-28T19:34:27;10.30;97.40
3705;DHT22;1868;48.918;9.438;2023-12-28T19:36:56;10.30;97.40
3705;DHT22;1868;48.918;9.438;2023-12-28T19:39:25;10.40;97.40
3705;DHT22;1868;48.918;9.438;2023-12-28T19:41:54;10.40;97.40
3705;DHT22;1868;48.918;9.438;2023-12-28T19:44:25;10.40;97.40
3705;DHT22;1868;48.918;9.438;2023-12-28T19:46:53;10.40;97.40
3705;DHT22;1868;48.918;9.438;2023-12-28T19:49:22;10.40;97.40
3705;DHT22;1868;48.918;9.438;2023-12-28T19:51:55;10.40;97.40
3705;DHT22;1868;48.918;9.438;2023-12-28T19:54:24;10.40;97.40
3705;DHT22;1868;48.918;9.438;2023-12-28T19:56:53;10.30;97.40
3705;DHT22;1868;48.918;9.438;2023-12-28T19:59:22;10.40;97.40
3705;DHT22;1868;48.918;9.438;2023-12-28T20:01:51;10.30;97.40
3705;DHT22;1868;48.918;9.438;2023-12-28T20:04:22;10.40;97.40
3705;DHT22;1868;48.918;9.438;2023-12-28T20:06:51;10.30;97.40
3705;DHT22;1868;48.918;9.438;2023-12-28T20:09:21;10.30;97.40
3705;DHT22;1868;48.918;9.438;2023-12-28T20:11:53;10.30;97.40
3705;DHT22;1868;48.918;9.438;2023-12-28T20:14:21;10.30;97.40
3705;DHT22;1868;48.918;9.438;2023-12-28T20:16:50;10.30;97.40
3705;DHT22;1868;48.918;9.438;2023-12-28T20:19:19;10.30;97.40
3705;DHT22;1868;48.918;9.438;2023-12-28T20:21:51;10.30;97.40
3705;DHT22;1868;48.918;9.438;2023-12-28T20:24:21;10.30;97.40
3705;DHT22;1868;48.918;9.438;2023-12-28T20:26:50;10.20;97.40
3705;DHT22;1868;48.918;9.438;2023-12-28T20:29:19;10.20;97.40
3705;DHT22;1868;48.918;9.438;2023-12-28T20:31:48;10.20;97.40
3705;DHT22;1868;48.918;9.438;2023-12-28T20:34:16;10.20;97.40
3705;DHT22;1868;48.918;9.438;2023-12-28T20:36:45;10.20;97.40
3705;DHT22;1868;48.918;9.438;2023-12-28T20:39:14;10.20;97.40
3705;DHT22;1868;48.918;9.438;2023-12-28T20:41:44;10.20;97.40
3705;DHT22;1868;48.918;9.438;2023-12-28T20:44:13;10.20;97.40
3705;DHT22;1868;48.918;9.438;2023-12-28T20:46:46;10.20;97.40
3705;DHT22;1868;48.918;9.438;2023-12-28T20:49:15;10.20;97.40
3705;DHT22;1868;48.918;9.438;2023-12-28T20:51:57;10.20;97.40
3705;DHT22;1868;48.918;9.438;2023-12-28T20:54:28;10.20;97.40
3705;DHT22;1868;48.918;9.438;2023-12-28T20:57:00;10.20;97.40
3705;DHT22;1868;48.918;9.438;2023-12-28T20:59:29;10.20;97.40
3705;DHT22;1868;48.918;9.438;2023-12-28T21:01:57;10.20;97.40
3705;DHT22;1868;48.918;9.438;2023-12-28T21:04:26;10.30;97.40
3705;DHT22;1868;48.918;9.438;2023-12-28T21:06:55;10.30;97.40
3705;DHT22;1868;48.918;9.438;2023-12-28T21:09:24;10.30;97.40
3705;DHT22;1868;48.918;9.438;2023-12-28T21:11:53;10.30;97.40
3705;DHT22;1868;48.918;9.438;2023-12-28T21:14:30;10.30;97.40
3705;DHT22;1868;48.918;9.438;2023-12-28T21:17:06;10.30;97.40
3705;DHT22;1868;48.918;9.438;2023-12-28T21:19:37;10.30;97.40
3705;DHT22;1868;48.918;9.438;2023-12-28T21:22:14;10.20;97.40
3705;DHT22;1868;48.918;9.438;2023-12-28T21:24:44;10.20;97.40
3705;DHT22;1868;48.918;9.438;2023-12-28T21:27:13;10.20;97.40
3705;DHT22;1868;48.918;9.438;2023-12-28T21:29:43;10.20;97.40
3705;DHT22;1868;48.918;9.438;2023-12-28T21:32:12;10.20;97.40
3705;DHT22;1868;48.918;9.438;2023-12-28T21:34:41;10.20;97.40
3705;DHT22;1868;48.918;9.438;2023-12-28T21:37:10;10.20;97.40
3705;DHT22;1868;48.918;9.438;2023-12-28T21:39:39;10.20;97.40
3705;DHT22;1868;48.918;9.438;2023-12-28T21:42:08;10.10;97.40
3705;DHT22;1868;48.918;9.438;2023-12-28T21:44:37;10.10;97.40
3705;DHT22;1868;48.918;9.438;2023-12-28T21:47:07;10.10;97.40
3705;DHT22;1868;48.918;9.438;2023-12-28T21:49:41;10.10;97.40
3705;DHT22;1868;48.918;9.438;2023-12-28T21:52:10;10.10;97.40
3705;DHT22;1868;48.918;9.438;2023-12-28T21:54:41;10.00;97.40
3705;DHT22;1868;48.918;9.438;2023-12-28T21:57:11;10.10;97.40
3705;DHT22;1868;48.918;9.438;2023-12-28T21:59:40;10.10;97.40
3705;DHT22;1868;48.918;9.438;2023-12-28T22:02:10;10.10;97.40
3705;DHT22;1868;48.918;9.438;2023-12-28T22:04:40;10.10;97.40
3705;DHT22;1868;48.918;9.438;2023-12-28T22:07:09;10.10;97.40
3705;DHT22;1868;48.918;9.438;2023-12-28T22:09:38;10.10;97.40
3705;DHT22;1868;48.918;9.438;2023-12-28T22:12:07;10.10;97.40
3705;DHT22;1868;48.918;9.438;2023-12-28T22:14:36;10.10;97.40
3705;DHT22;1868;48.918;9.438;2023-12-28T22:17:05;10.10;97.40
3705;DHT22;1868;48.918;9.438;2023-12-28T22:19:35;10.10;97.40
3705;DHT22;1868;48.918;9.438;2023-12-28T22:22:04;10.10;97.40
3705;DHT22;1868;48.918;9.438;2023-12-28T22:24:33;10.10;97.40
3705;DHT22;1868;48.918;9.438;2023-12-28T22:27:04;10.10;97.40
3705;DHT22;1868;48.918;9.438;2023-12-28T22:29:33;10.10;97.40
3705;DHT22;1868;48.918;9.438;2023-12-28T22:32:03;10.10;97.40
3705;DHT22;1868;48.918;9.438;2023-12-28T22:34:32;10.10;97.40
3705;DHT22;1868;48.918;9.438;2023-12-28T22:37:02;10.20;97.40
3705;DHT22;1868;48.918;9.438;2023-12-28T22:39:32;10.20;97.40
3705;DHT22;1868;48.918;9.438;2023-12-28T22:42:05;10.20;97.40
3705;DHT22;1868;48.918;9.438;2023-12-28T22:44:33;10.20;97.40
3705;DHT22;1868;48.918;9.438;2023-12-28T22:47:02;10.20;97.40
3705;DHT22;1868;48.918;9.438;2023-12-28T22:49:31;10.20;97.40
3705;DHT22;1868;48.918;9.438;2023-12-28T22:52:02;10.20;97.40
3705;DHT22;1868;48.918;9.438;2023-12-28T22:54:35;10.10;97.40
3705;DHT22;1868;48.918;9.438;2023-12-28T22:57:04;10.10;97.40
3705;DHT22;1868;48.918;9.438;2023-12-28T22:59:33;10.10;97.40
3705;DHT22;1868;48.918;9.438;2023-12-28T23:02:02;10.00;97.40
3705;DHT22;1868;48.918;9.438;2023-12-28T23:04:30;10.00;97.40
3705;DHT22;1868;48.918;9.438;2023-12-28T23:07:16;10.10;97.40
3705;DHT22;1868;48.918;9.438;2023-12-28T23:09:46;10.10;97.40
3705;DHT22;1868;48.918;9.438;2023-12-28T23:12:15;10.10;97.40
3705;DHT22;1868;48.918;9.438;2023-12-28T23:14:44;10.10;97.40
3705;DHT22;1868;48.918;9.438;2023-12-28T23:17:13;10.10;97.40
3705;DHT22;1868;48.918;9.438;2023-12-28T23:19:43;10.10;97.40
3705;DHT22;1868;48.918;9.438;2023-12-28T23:22:12;10.20;97.40
3705;DHT22;1868;48.918;9.438;2023-12-28T23:24:42;10.30;97.40
3705;DHT22;1868;48.918;9.438;2023-12-28T23:27:11;10.40;97.40
3705;DHT22;1868;48.918;9.438;2023-12-28T23:29:40;10.50;97.40
3705;DHT22;1868;48.918;9.438;2023-12-28T23:32:08;10.50;97.40
3705;DHT22;1868;48.918;9.438;2023-12-28T23:34:37;10.50;97.40
3705;DHT22;1868;48.918;9.438;2023-12-28T23:37:05;10.50;97.40
3705;DHT22;1868;48.918;9.438;2023-12-28T23:39:35;10.60;97.40
3705;DHT22;1868;48.918;9.438;2023-12-28T23:42:05;10.60;97.40
3705;DHT22;1868;48.918;9.438;2023-12-28T23:44:34;10.50;97.40
3705;DHT22;1868;48.918;9.438;2023-12-28T23:47:05;10.50;97.40
3705;DHT22;1868;48.918;9.438;2023-12-28T23:49:35;10.60;97.40
3705;DHT22;1868;48.918;9.438;2023-12-28T23:52:04;10.50;97.40
3705;DHT22;1868;48.918;9.438;2023-12-28T23:54:33;10.60;97.40
3705;DHT22;1868;48.918;9.438;2023-12-28T23:57:06;10.50;97.40
3705;DHT22;1868;48.918;9.438;2023-12-28T23:59:36;10.50;97.40
